createdAt,value
2019-02-02T00:03:48.115Z,95494.76
2019-02-02T00:07:51.577Z,95490.53
2019-02-02T00:11:55.043Z,95492.24
2019-02-02T00:15:58.492Z,95505.05
2019-02-02T00:20:01.954Z,95497.70
2019-02-02T00:24:05.417Z,95501.41
2019-02-02T00:28:08.877Z,95503.54
2019-02-02T00:32:12.341Z,95510.64
2019-02-02T00:36:15.797Z,95509.69
2019-02-02T00:40:19.262Z,95505.57
2019-02-02T00:44:22.721Z,95512.28
2019-02-02T00:48:26.203Z,95502.59
2019-02-02T00:52:29.669Z,95509.63
2019-02-02T00:56:33.121Z,95497.42
2019-02-02T01:00:36.583Z,95501.86
2019-02-02T01:04:40.053Z,95503.69
2019-02-02T01:08:43.516Z,95507.03
2019-02-02T01:12:46.984Z,95510.64
2019-02-02T01:16:50.437Z,95512.91
2019-02-02T01:20:53.900Z,95521.58
2019-02-02T01:24:57.369Z,95508.84
2019-02-02T01:29:00.828Z,95497.70
2019-02-02T01:33:04.290Z,95504.48
2019-02-02T01:37:07.743Z,95504.41
2019-02-02T01:41:11.209Z,95519.91
2019-02-02T01:45:14.674Z,95518.23
2019-02-02T01:49:18.140Z,95517.31
2019-02-02T01:53:21.621Z,95524.77
2019-02-02T01:57:25.073Z,95527.81
2019-02-02T02:01:28.536Z,95538.83
2019-02-02T02:05:32.002Z,95539.03
2019-02-02T02:09:35.467Z,95533.16
2019-02-02T02:13:38.922Z,95523.56
2019-02-02T02:17:42.393Z,95518.66
2019-02-02T02:21:46.825Z,95510.26
2019-02-02T02:25:50.285Z,95506.67
2019-02-02T02:29:53.753Z,95522.28
2019-02-02T02:33:57.211Z,95533.16
2019-02-02T02:38:00.673Z,95536.20
2019-02-02T02:42:04.138Z,95526.52
2019-02-02T02:46:07.610Z,95525.95
2019-02-02T02:50:11.079Z,95527.80
2019-02-02T02:54:14.541Z,95520.77
2019-02-02T02:58:17.995Z,95513.26
2019-02-02T03:02:21.499Z,95504.87
2019-02-02T03:06:24.929Z,95505.84
2019-02-02T03:10:28.391Z,95509.97
2019-02-02T03:14:31.854Z,95497.17
2019-02-02T03:18:35.320Z,95482.34
2019-02-02T03:22:38.782Z,95487.56
2019-02-02T03:26:42.249Z,95477.98
2019-02-02T03:30:45.722Z,95500.56
2019-02-02T03:34:49.172Z,95518.13
2019-02-02T03:38:52.641Z,95509.73
2019-02-02T03:42:56.100Z,95508.64
2019-02-02T03:46:59.572Z,95510.11
2019-02-02T03:51:03.025Z,95507.53
2019-02-02T03:55:06.486Z,95506.23
2019-02-02T03:59:09.953Z,95499.09
2019-02-02T04:03:13.418Z,95493.84
2019-02-02T04:07:16.884Z,95505.59
2019-02-02T04:11:20.331Z,95516.41
2019-02-02T04:15:23.790Z,95505.18
2019-02-02T04:19:27.253Z,95502.66
2019-02-02T04:23:30.721Z,95503.33
2019-02-02T04:27:34.184Z,95501.92
2019-02-02T04:31:37.640Z,95517.71
2019-02-02T04:35:41.106Z,95527.30
2019-02-02T04:39:44.576Z,95527.50
2019-02-02T04:43:48.036Z,95543.09
2019-02-02T04:47:51.503Z,95556.95
2019-02-02T04:51:54.958Z,95567.75
2019-02-02T04:55:58.423Z,95569.41
2019-02-02T05:00:01.893Z,95573.03
2019-02-02T05:04:05.359Z,95574.60
2019-02-02T05:08:08.824Z,95583.78
2019-02-02T05:12:12.273Z,95567.54
2019-02-02T05:16:15.743Z,95568.50
2019-02-02T05:20:19.195Z,95580.45
2019-02-02T05:24:22.661Z,95577.91
2019-02-02T05:28:26.410Z,95590.58
2019-02-02T05:32:29.861Z,95598.34
2019-02-02T05:36:33.328Z,95610.23
2019-02-02T05:40:36.798Z,95612.02
2019-02-02T05:44:40.259Z,95619.61
2019-02-02T05:48:43.715Z,95614.19
2019-02-02T05:52:47.189Z,95604.45
2019-02-02T05:56:50.637Z,95583.80
2019-02-02T06:00:54.674Z,95588.84
2019-02-02T06:04:58.140Z,95586.13
2019-02-02T06:09:01.601Z,95591.91
2019-02-02T06:13:06.148Z,95608.00
2019-02-02T06:17:09.586Z,95621.84
2019-02-02T06:21:13.057Z,95616.13
2019-02-02T06:25:16.518Z,95628.97
2019-02-02T06:29:19.975Z,95647.69
2019-02-02T06:33:23.431Z,95644.55
2019-02-02T06:37:26.905Z,95637.59
2019-02-02T06:41:30.370Z,95627.84
2019-02-02T06:45:33.941Z,95637.64
2019-02-02T06:49:37.360Z,95627.84
2019-02-02T06:53:40.824Z,95626.09
2019-02-02T06:57:44.292Z,95633.83
2019-02-02T07:01:47.755Z,95639.45
2019-02-02T07:05:51.206Z,95647.61
2019-02-02T07:09:54.676Z,95656.75
2019-02-02T07:13:58.133Z,95657.05
2019-02-02T07:18:01.598Z,95675.05
2019-02-02T07:22:05.060Z,95698.40
2019-02-02T07:26:08.520Z,95716.95
2019-02-02T07:30:11.991Z,95722.91
2019-02-02T07:34:16.525Z,95726.97
2019-02-02T07:38:19.994Z,95741.21
2019-02-02T07:42:23.482Z,95746.53
2019-02-02T07:46:26.934Z,95747.13
2019-02-02T07:50:31.382Z,95755.44
2019-02-02T07:54:34.840Z,95745.53
2019-02-02T07:58:38.293Z,95750.86
2019-02-02T08:02:41.763Z,95756.06
2019-02-02T08:06:46.286Z,95755.54
2019-02-02T08:10:49.866Z,95747.45
2019-02-02T08:14:53.336Z,95749.97
2019-02-02T08:18:56.797Z,95758.73
2019-02-02T08:23:00.264Z,95758.14
2019-02-02T08:27:03.723Z,95757.06
2019-02-02T08:31:07.189Z,95759.05
2019-02-02T08:35:10.657Z,95770.68
2019-02-02T08:39:14.114Z,95782.15
2019-02-02T08:43:17.577Z,95794.79
2019-02-02T08:47:21.031Z,95800.12
2019-02-02T08:51:24.492Z,95811.48
2019-02-02T08:55:27.957Z,95813.90
2019-02-02T08:59:31.417Z,95815.13
2019-02-02T09:03:34.937Z,95818.30
2019-02-02T09:07:39.415Z,95813.33
2019-02-02T09:11:42.880Z,95817.81
2019-02-02T09:15:46.336Z,95822.91
2019-02-02T09:19:49.800Z,95832.16
2019-02-02T09:23:53.245Z,95841.59
2019-02-02T09:27:56.721Z,95838.82
2019-02-02T09:32:00.184Z,95832.34
2019-02-02T09:36:03.649Z,95834.19
2019-02-02T09:40:08.083Z,95841.47
2019-02-02T09:44:11.538Z,95843.22
2019-02-02T09:48:15.010Z,95852.69
2019-02-02T09:52:18.472Z,95865.49
2019-02-02T09:56:21.941Z,95874.78
2019-02-02T10:00:25.409Z,95879.81
2019-02-02T10:04:28.864Z,95887.59
2019-02-02T10:08:32.328Z,95901.63
2019-02-02T10:12:36.869Z,95909.42
2019-02-02T10:16:40.335Z,95912.58
2019-02-02T10:20:43.808Z,95920.23
2019-02-02T10:24:47.263Z,95920.91
2019-02-02T10:28:50.731Z,95929.28
2019-02-02T10:32:54.195Z,95932.12
2019-02-02T10:36:57.660Z,95939.37
2019-02-02T10:41:01.126Z,95946.22
2019-02-02T10:45:04.573Z,95942.77
2019-02-02T10:49:08.039Z,95943.61
2019-02-02T10:53:11.500Z,95938.28
2019-02-02T10:57:14.971Z,95936.19
2019-02-02T11:01:18.453Z,95941.66
2019-02-02T11:05:22.025Z,95939.18
2019-02-02T11:09:25.599Z,95947.44
2019-02-02T11:13:29.058Z,95946.59
2019-02-02T11:17:32.675Z,95943.28
2019-02-02T11:21:36.076Z,95957.39
2019-02-02T11:25:39.802Z,95959.79
2019-02-02T11:29:43.330Z,95959.64
2019-02-02T11:33:46.836Z,95963.28
2019-02-02T11:37:50.302Z,95965.74
2019-02-02T11:41:53.765Z,95967.83
2019-02-02T11:45:57.223Z,95967.68
2019-02-02T11:50:00.764Z,95971.41
2019-02-02T11:54:04.224Z,95970.19
2019-02-02T11:58:07.692Z,95966.09
2019-02-02T12:02:14.515Z,95979.39
2019-02-02T12:06:16.319Z,95987.29
2019-02-02T12:10:19.781Z,95994.94
2019-02-02T12:14:23.252Z,95997.34
2019-02-02T12:18:26.717Z,96002.20
2019-02-02T12:22:30.178Z,96011.50
2019-02-02T12:26:33.647Z,96010.56
2019-02-02T12:30:37.108Z,96023.20
2019-02-02T12:34:40.579Z,96019.95
2019-02-02T12:38:44.040Z,96030.46
2019-02-02T12:42:47.489Z,96044.16
2019-02-02T12:46:50.949Z,96034.75
2019-02-02T12:50:54.408Z,96033.92
2019-02-02T12:54:57.871Z,96042.12
2019-02-02T12:59:01.342Z,96048.52
2019-02-02T13:03:04.795Z,96056.42
2019-02-02T13:07:08.252Z,96067.98
2019-02-02T13:11:11.719Z,96065.00
2019-02-02T13:15:15.186Z,96075.01
2019-02-02T13:19:18.646Z,96073.38
2019-02-02T13:23:22.106Z,96071.55
2019-02-02T13:27:25.611Z,96083.67
2019-02-02T13:31:29.026Z,96084.45
2019-02-02T13:35:32.485Z,96084.31
2019-02-02T13:39:35.960Z,96084.39
2019-02-02T13:43:39.416Z,96091.86
2019-02-02T13:47:42.892Z,96087.45
2019-02-02T13:51:47.319Z,96082.41
2019-02-02T13:55:50.790Z,96094.00
2019-02-02T13:59:54.312Z,96100.16
2019-02-02T14:03:57.771Z,96098.17
2019-02-02T14:08:01.241Z,96108.00
2019-02-02T14:12:04.703Z,96112.02
2019-02-02T14:16:08.172Z,96109.23
2019-02-02T14:20:11.626Z,96103.69
2019-02-02T14:24:15.102Z,96118.16
2019-02-02T14:28:27.988Z,96129.32
2019-02-02T14:32:23.745Z,96134.34
2019-02-02T14:36:27.212Z,96141.17
2019-02-02T14:40:30.674Z,96152.82
2019-02-02T14:44:34.149Z,96158.41
2019-02-02T14:48:37.603Z,96156.34
2019-02-02T14:52:41.070Z,96161.11
2019-02-02T14:56:48.017Z,96171.05
2019-02-02T15:00:49.688Z,96178.73
2019-02-02T15:04:53.157Z,96180.42
2019-02-02T15:08:56.618Z,96183.75
2019-02-02T15:13:00.091Z,96185.28
2019-02-02T15:17:03.540Z,96197.86
2019-02-02T15:21:07.600Z,96217.48
2019-02-02T15:25:11.035Z,96225.64
2019-02-02T15:29:14.496Z,96227.72
2019-02-02T15:33:17.963Z,96231.59
2019-02-02T15:37:21.420Z,96238.55
2019-02-02T15:41:24.870Z,96249.73
2019-02-02T15:45:28.340Z,96262.40
2019-02-02T15:49:31.803Z,96274.45
2019-02-02T15:53:35.265Z,96281.27
2019-02-02T15:57:38.725Z,96278.23
2019-02-02T16:01:42.177Z,96288.17
2019-02-02T16:05:45.637Z,96298.74
2019-02-02T16:09:49.091Z,96308.53
2019-02-02T16:13:52.555Z,96320.56
2019-02-02T16:17:56.011Z,96325.75
2019-02-02T16:21:59.461Z,96330.84
2019-02-02T16:26:02.928Z,96346.46
2019-02-02T16:30:06.404Z,96353.75
2019-02-02T16:34:09.874Z,96361.09
2019-02-02T16:38:14.404Z,96354.11
2019-02-02T16:42:18.934Z,96367.66
2019-02-02T16:46:22.395Z,96374.16
2019-02-02T16:50:25.860Z,96380.66
2019-02-02T16:54:29.331Z,96389.14
2019-02-02T16:58:32.796Z,96393.66
2019-02-02T17:02:36.247Z,96404.68
2019-02-02T17:06:39.718Z,96402.21
2019-02-02T17:10:43.182Z,96415.30
2019-02-02T17:14:46.651Z,96431.80
2019-02-02T17:18:50.104Z,96431.25
2019-02-02T17:22:53.574Z,96437.52
2019-02-02T17:26:57.035Z,96449.77
2019-02-02T17:31:00.497Z,96450.19
2019-02-02T17:35:04.942Z,96453.70
2019-02-02T17:39:08.389Z,96466.06
2019-02-02T17:43:12.024Z,96469.20
2019-02-02T17:47:15.493Z,96467.94
2019-02-02T17:51:19.059Z,96472.73
2019-02-02T17:55:22.501Z,96476.63
2019-02-02T17:59:26.085Z,96478.72
2019-02-02T18:03:30.617Z,96474.58
2019-02-02T18:07:34.084Z,96489.51
2019-02-02T18:11:37.551Z,96495.41
2019-02-02T18:15:41.019Z,96501.90
2019-02-02T18:19:44.471Z,96507.43
2019-02-02T18:23:47.938Z,96516.52
2019-02-02T18:27:51.410Z,96521.20
2019-02-02T18:31:54.889Z,96525.87
2019-02-02T18:35:58.382Z,96531.91
2019-02-02T18:40:01.837Z,96528.52
2019-02-02T18:44:05.320Z,96538.00
2019-02-02T18:48:08.798Z,96547.93
2019-02-02T18:52:12.264Z,96548.83
2019-02-02T18:56:15.731Z,96550.72
2019-02-02T19:00:19.186Z,96548.95
2019-02-02T19:04:22.648Z,96544.78
2019-02-02T19:08:26.115Z,96539.97
2019-02-02T19:12:29.600Z,96543.59
2019-02-02T19:16:33.077Z,96564.87
2019-02-02T19:20:36.519Z,96575.00
2019-02-02T19:24:39.987Z,96580.95
2019-02-02T19:28:43.457Z,96584.08
2019-02-02T19:32:46.950Z,96593.00
2019-02-02T19:36:50.412Z,96598.31
2019-02-02T19:40:53.876Z,96606.48
2019-02-02T19:44:57.345Z,96609.35
2019-02-02T19:49:00.816Z,96622.58
2019-02-02T19:53:04.329Z,96625.59
2019-02-02T19:57:07.841Z,96635.91
2019-02-02T20:01:11.296Z,96646.72
2019-02-02T20:05:14.768Z,96647.27
2019-02-02T20:09:18.256Z,96652.14
2019-02-02T20:13:21.726Z,96649.77
2019-02-02T20:17:25.190Z,96659.60
2019-02-02T20:21:28.713Z,96678.65
2019-02-02T20:25:32.182Z,96681.96
2019-02-02T20:29:35.649Z,96677.90
2019-02-02T20:33:39.121Z,96682.77
2019-02-02T20:37:42.586Z,96702.93
2019-02-02T20:41:46.041Z,96707.94
2019-02-02T20:45:50.317Z,96709.86
2019-02-02T20:49:53.816Z,96713.08
2019-02-02T20:53:57.260Z,96723.27
2019-02-02T20:58:00.738Z,96738.78
2019-02-02T21:02:04.190Z,96761.27
2019-02-02T21:06:07.676Z,96761.89
2019-02-02T21:10:11.129Z,96765.66
2019-02-02T21:14:14.773Z,96775.50
2019-02-02T21:18:18.231Z,96788.00
2019-02-02T21:22:21.696Z,96798.54
2019-02-02T21:26:25.157Z,96814.55
2019-02-02T21:30:28.643Z,96828.25
2019-02-02T21:34:32.091Z,96832.06
2019-02-02T21:38:35.554Z,96838.33
2019-02-02T21:42:39.400Z,96842.75
2019-02-02T21:46:42.869Z,96854.09
2019-02-02T21:50:46.333Z,96855.10
2019-02-02T21:54:49.797Z,96859.07
2019-02-02T21:58:53.257Z,96861.78
2019-02-02T22:02:56.720Z,96869.22
2019-02-02T22:07:00.192Z,96870.56
2019-02-02T22:11:03.942Z,96875.75
2019-02-02T22:15:07.410Z,96870.27
2019-02-02T22:19:10.871Z,96883.71
2019-02-02T22:23:14.361Z,96883.38
2019-02-02T22:27:17.825Z,96876.05
2019-02-02T22:31:21.289Z,96877.50
2019-02-02T22:35:24.759Z,96883.83
2019-02-02T22:39:28.211Z,96895.05
2019-02-02T22:43:31.684Z,96892.48
2019-02-02T22:47:35.139Z,96894.09
2019-02-02T22:51:38.611Z,96895.91
2019-02-02T22:55:42.091Z,96906.34
2019-02-02T22:59:47.797Z,96921.69
2019-02-02T23:03:50.698Z,96919.88
2019-02-02T23:07:54.160Z,96931.53
2019-02-02T23:11:57.625Z,96925.16
2019-02-02T23:16:01.093Z,96934.71
2019-02-02T23:20:04.545Z,96936.52
2019-02-02T23:24:08.019Z,96944.77
2019-02-02T23:28:11.489Z,96950.66
2019-02-02T23:32:14.961Z,96957.06
2019-02-02T23:36:18.429Z,96961.16
2019-02-02T23:40:21.877Z,96963.48
2019-02-02T23:44:25.382Z,96968.17
2019-02-02T23:48:28.823Z,96971.21
2019-02-02T23:52:32.291Z,96979.93
2019-02-02T23:56:35.754Z,96984.88
